createdAt,value
2023-02-15T00:01:30.608Z,74.75
2023-02-15T00:03:58.839Z,74.88
2023-02-15T00:06:27.489Z,74.83
2023-02-15T00:08:56.453Z,74.97
2023-02-15T00:11:43.390Z,74.88
2023-02-15T00:14:16.732Z,75.02
2023-02-15T00:16:46.034Z,75.20
2023-02-15T00:19:16.550Z,75.17
2023-02-15T00:21:45.330Z,75.39
2023-02-15T00:24:16.310Z,75.34
2023-02-15T00:26:45.150Z,75.51
2023-02-15T00:29:16.320Z,75.61
2023-02-15T00:31:44.815Z,75.41
2023-02-15T00:34:22.311Z,75.45
2023-02-15T00:36:51.185Z,75.54
2023-02-15T00:39:20.069Z,75.77
2023-02-15T00:41:48.763Z,75.96
2023-02-15T00:44:17.282Z,75.68
2023-02-15T00:46:45.561Z,75.69
2023-02-15T00:49:13.836Z,75.75
2023-02-15T00:51:42.120Z,75.73
2023-02-15T00:54:10.538Z,75.89
2023-02-15T00:56:38.806Z,75.99
2023-02-15T00:59:07.519Z,76.15
2023-02-15T01:01:35.839Z,76.19
2023-02-15T01:04:04.230Z,75.99
2023-02-15T01:06:32.591Z,76.07
2023-02-15T01:09:00.840Z,76.05
2023-02-15T01:11:29.134Z,76.14
2023-02-15T01:13:59.135Z,76.12
2023-02-15T01:16:28.981Z,76.26
2023-02-15T01:18:57.842Z,76.23
2023-02-15T01:21:27.503Z,76.21
2023-02-15T01:23:55.740Z,76.18
2023-02-15T01:26:24.172Z,76.17
2023-02-15T01:28:52.454Z,76.25
2023-02-15T01:31:22.691Z,76.14
2023-02-15T01:33:51.105Z,76.13
2023-02-15T01:36:19.488Z,76.14
2023-02-15T01:38:47.804Z,76.33
2023-02-15T01:41:24.421Z,76.31
2023-02-15T01:43:59.744Z,76.14
2023-02-15T01:46:42.321Z,76.28
2023-02-15T01:49:18.254Z,76.19
2023-02-15T01:51:48.658Z,76.25
2023-02-15T01:54:21.826Z,76.15
2023-02-15T01:56:50.120Z,76.23
2023-02-15T01:59:22.337Z,76.26
2023-02-15T02:01:53.636Z,76.18
2023-02-15T02:04:34.538Z,76.25
2023-02-15T02:07:04.904Z,76.27
2023-02-15T02:09:33.663Z,76.29
2023-02-15T02:12:02.820Z,76.02
2023-02-15T02:14:31.984Z,76.10
2023-02-15T02:17:06.235Z,76.11
2023-02-15T02:19:53.099Z,76.05
2023-02-15T02:22:21.299Z,76.06
2023-02-15T02:25:02.236Z,76.01
2023-02-15T02:27:41.097Z,75.98
2023-02-15T02:30:38.596Z,75.99
2023-02-15T02:33:12.828Z,76.09
2023-02-15T02:36:07.400Z,76.16
2023-02-15T02:39:04.625Z,76.08
2023-02-15T02:41:38.088Z,76.06
2023-02-15T02:44:12.200Z,76.03
2023-02-15T02:47:10.628Z,75.97
2023-02-15T02:49:44.698Z,76.05
2023-02-15T02:52:48.431Z,75.94
2023-02-15T02:55:42.381Z,76.01
2023-02-15T02:58:38.765Z,76.03
2023-02-15T03:01:14.860Z,75.82
2023-02-15T03:03:48.206Z,75.84
2023-02-15T03:06:30.468Z,75.90
2023-02-15T03:09:06.644Z,75.63
2023-02-15T03:11:35.294Z,75.81
2023-02-15T03:14:03.602Z,75.74
2023-02-15T03:16:32.485Z,75.62
2023-02-15T03:19:10.068Z,75.76
2023-02-15T03:21:58.847Z,75.71
2023-02-15T03:24:37.093Z,75.88
2023-02-15T03:27:13.033Z,75.71
2023-02-15T03:29:41.273Z,75.58
2023-02-15T03:32:12.423Z,75.78
2023-02-15T03:34:40.906Z,75.56
2023-02-15T03:37:25.549Z,75.53
2023-02-15T03:40:36.054Z,75.48
2023-02-15T03:43:32.811Z,75.40
2023-02-15T03:46:14.051Z,75.50
2023-02-15T03:48:53.347Z,75.46
2023-02-15T03:51:36.221Z,75.32
2023-02-15T03:54:43.673Z,75.43
2023-02-15T03:57:53.886Z,75.46
2023-02-15T04:00:45.041Z,75.48
2023-02-15T04:03:21.548Z,75.23
2023-02-15T04:05:50.169Z,75.50
2023-02-15T04:08:18.403Z,75.21
2023-02-15T04:10:57.290Z,75.17
2023-02-15T04:13:32.741Z,75.48
2023-02-15T04:16:08.143Z,75.42
2023-02-15T04:19:00.838Z,75.22
2023-02-15T04:21:49.998Z,75.34
2023-02-15T04:24:37.773Z,75.50
2023-02-15T04:27:07.035Z,75.57
2023-02-15T04:29:35.337Z,75.40
2023-02-15T04:32:03.707Z,75.57
2023-02-15T04:34:32.060Z,75.49
2023-02-15T04:37:00.573Z,75.54
2023-02-15T04:39:28.754Z,75.59
2023-02-15T04:41:56.965Z,75.64
2023-02-15T04:44:25.337Z,75.45
2023-02-15T04:46:53.578Z,75.79
2023-02-15T04:49:21.806Z,75.48
2023-02-15T04:51:50.072Z,75.62
2023-02-15T04:54:18.302Z,75.70
2023-02-15T04:56:46.600Z,75.48
2023-02-15T04:59:15.109Z,75.59
2023-02-15T05:01:43.307Z,75.37
2023-02-15T05:04:11.885Z,75.61
2023-02-15T05:06:40.247Z,75.73
2023-02-15T05:09:08.553Z,75.52
2023-02-15T05:11:36.765Z,75.48
2023-02-15T05:14:05.767Z,75.46
2023-02-15T05:16:34.453Z,75.30
2023-02-15T05:19:02.716Z,75.54
2023-02-15T05:21:31.320Z,75.79
2023-02-15T05:23:59.666Z,75.77
2023-02-15T05:26:46.597Z,75.56
2023-02-15T05:29:14.864Z,75.38
2023-02-15T05:31:45.535Z,75.23
2023-02-15T05:34:14.027Z,75.50
2023-02-15T05:36:42.324Z,75.63
2023-02-15T05:39:10.594Z,75.81
2023-02-15T05:41:38.781Z,75.51
2023-02-15T05:44:07.073Z,75.72
2023-02-15T05:46:35.359Z,75.83
2023-02-15T05:49:03.592Z,76.04
2023-02-15T05:51:31.882Z,75.81
2023-02-15T05:54:00.113Z,75.79
2023-02-15T05:56:28.373Z,75.89
2023-02-15T05:58:56.668Z,75.88
2023-02-15T06:01:24.842Z,76.10
2023-02-15T06:03:53.607Z,76.19
2023-02-15T06:06:21.881Z,75.88
2023-02-15T06:08:50.365Z,76.17
2023-02-15T06:11:18.903Z,75.89
2023-02-15T06:13:47.468Z,76.05
2023-02-15T06:16:17.167Z,75.92
2023-02-15T06:18:45.546Z,75.90
2023-02-15T06:21:14.284Z,76.25
2023-02-15T06:23:42.642Z,75.77
2023-02-15T06:26:10.999Z,76.33
2023-02-15T06:28:39.359Z,75.94
2023-02-15T06:31:07.978Z,76.31
2023-02-15T06:33:36.363Z,76.04
2023-02-15T06:36:05.102Z,75.96
2023-02-15T06:38:33.654Z,76.08
2023-02-15T06:41:01.833Z,76.07
2023-02-15T06:43:30.090Z,76.24
2023-02-15T06:45:59.370Z,76.11
2023-02-15T06:48:27.955Z,76.08
2023-02-15T06:50:56.329Z,75.99
2023-02-15T06:53:24.719Z,75.94
2023-02-15T06:55:52.919Z,76.20
2023-02-15T06:58:21.191Z,75.98
2023-02-15T07:00:50.651Z,76.29
2023-02-15T07:03:18.904Z,76.04
2023-02-15T07:05:48.710Z,76.20
2023-02-15T07:08:16.939Z,76.16
2023-02-15T07:10:45.512Z,76.23
2023-02-15T07:13:13.785Z,76.35
2023-02-15T07:15:41.997Z,76.57
2023-02-15T07:18:11.843Z,76.44
2023-02-15T07:20:42.692Z,76.46
2023-02-15T07:23:10.936Z,76.58
2023-02-15T07:25:39.192Z,76.83
2023-02-15T07:28:08.166Z,76.71
2023-02-15T07:30:38.382Z,76.69
2023-02-15T07:33:25.302Z,76.84
2023-02-15T07:35:59.285Z,76.66
2023-02-15T07:38:29.097Z,76.73
2023-02-15T07:41:01.864Z,76.98
2023-02-15T07:43:31.163Z,77.00
2023-02-15T07:46:05.919Z,77.12
2023-02-15T07:48:35.073Z,77.17
2023-02-15T07:51:06.156Z,77.24
2023-02-15T07:53:35.181Z,77.44
2023-02-15T07:56:07.379Z,77.24
2023-02-15T07:58:55.100Z,77.58
2023-02-15T08:01:30.941Z,77.46
2023-02-15T08:03:59.656Z,77.62
2023-02-15T08:06:30.671Z,77.88
2023-02-15T08:08:59.210Z,77.72
2023-02-15T08:11:31.206Z,77.75
2023-02-15T08:14:03.791Z,77.68
2023-02-15T08:16:35.325Z,77.85
2023-02-15T08:19:07.613Z,77.58
2023-02-15T08:21:38.507Z,77.93
2023-02-15T08:24:08.375Z,77.97
2023-02-15T08:26:37.179Z,77.70
2023-02-15T08:29:07.794Z,77.76
2023-02-15T08:31:38.465Z,77.83
2023-02-15T08:34:07.235Z,78.09
2023-02-15T08:36:36.200Z,78.10
2023-02-15T08:39:06.212Z,77.98
2023-02-15T08:41:35.939Z,78.00
2023-02-15T08:44:07.795Z,77.95
2023-02-15T08:46:39.506Z,78.10
2023-02-15T08:49:07.776Z,78.19
2023-02-15T08:51:38.044Z,78.29
2023-02-15T08:54:11.757Z,78.50
2023-02-15T08:56:42.280Z,78.51
2023-02-15T08:59:18.030Z,78.43
2023-02-15T09:01:47.092Z,78.59
2023-02-15T09:04:17.024Z,78.49
2023-02-15T09:06:49.079Z,78.56
2023-02-15T09:09:18.929Z,78.66
2023-02-15T09:11:51.394Z,78.57
2023-02-15T09:14:22.788Z,78.61
2023-02-15T09:16:53.200Z,78.53
2023-02-15T09:19:23.155Z,78.65
2023-02-15T09:21:51.516Z,78.82
2023-02-15T09:24:20.033Z,78.84
2023-02-15T09:26:49.737Z,78.96
2023-02-15T09:29:18.885Z,79.00
2023-02-15T09:31:51.129Z,78.98
2023-02-15T09:34:22.299Z,79.06
2023-02-15T09:36:52.163Z,79.05
2023-02-15T09:39:30.623Z,79.10
2023-02-15T09:42:56.594Z,79.24
2023-02-15T09:45:33.327Z,79.24
2023-02-15T09:48:07.160Z,79.48
2023-02-15T09:50:54.493Z,79.18
2023-02-15T09:53:22.679Z,78.99
2023-02-15T09:56:15.240Z,79.27
2023-02-15T09:58:52.389Z,79.11
2023-02-15T10:01:32.734Z,79.23
2023-02-15T10:04:01.003Z,79.28
2023-02-15T10:06:49.844Z,79.41
2023-02-15T10:09:43.311Z,79.27
2023-02-15T10:12:20.290Z,79.33
2023-02-15T10:14:58.696Z,79.15
2023-02-15T10:18:00.146Z,79.34
2023-02-15T10:20:49.190Z,79.09
2023-02-15T10:23:32.905Z,79.12
2023-02-15T10:26:19.953Z,79.35
2023-02-15T10:28:55.329Z,79.27
2023-02-15T10:31:38.312Z,79.33
2023-02-15T10:34:15.875Z,79.34
2023-02-15T10:36:56.419Z,79.26
2023-02-15T10:39:40.044Z,78.78
2023-02-15T10:42:37.136Z,79.03
2023-02-15T10:45:11.421Z,78.88
2023-02-15T10:48:22.628Z,78.66
2023-02-15T10:50:57.414Z,78.72
2023-02-15T10:53:47.663Z,78.51
2023-02-15T10:56:31.344Z,78.89
2023-02-15T10:59:18.862Z,78.19
2023-02-15T11:01:56.528Z,78.62
2023-02-15T11:04:29.250Z,78.13
2023-02-15T11:07:07.071Z,77.77
2023-02-15T11:09:43.497Z,78.11
2023-02-15T11:12:17.205Z,77.96
2023-02-15T11:15:12.766Z,78.00
2023-02-15T11:17:47.207Z,77.32
2023-02-15T11:20:30.665Z,77.07
2023-02-15T11:23:02.061Z,77.39
2023-02-15T11:25:35.826Z,77.22
2023-02-15T11:28:13.150Z,77.32
2023-02-15T11:30:52.909Z,76.93
2023-02-15T11:33:30.762Z,77.01
2023-02-15T11:36:05.313Z,77.09
2023-02-15T11:38:35.690Z,76.92
2023-02-15T11:41:11.053Z,76.89
2023-02-15T11:43:49.540Z,76.96
2023-02-15T11:46:19.981Z,76.73
2023-02-15T11:48:49.048Z,76.69
2023-02-15T11:51:22.667Z,76.52
2023-02-15T11:53:53.858Z,76.51
2023-02-15T11:56:25.193Z,76.42
2023-02-15T11:59:15.609Z,76.65
2023-02-15T12:01:46.049Z,76.30
2023-02-15T12:04:41.716Z,76.55
2023-02-15T12:07:31.515Z,76.37
2023-02-15T12:10:05.512Z,76.40
2023-02-15T12:12:37.539Z,75.92
2023-02-15T12:15:09.349Z,75.93
2023-02-15T12:17:42.564Z,75.86
2023-02-15T12:20:13.621Z,75.46
2023-02-15T12:22:51.038Z,75.59
2023-02-15T12:25:24.995Z,75.22
2023-02-15T12:27:53.459Z,75.34
2023-02-15T12:30:51.865Z,75.23
2023-02-15T12:33:26.181Z,75.29
2023-02-15T12:36:20.302Z,75.40
2023-02-15T12:39:09.199Z,75.11
2023-02-15T12:41:38.632Z,75.01
2023-02-15T12:44:24.543Z,75.05
2023-02-15T12:47:08.558Z,74.68
2023-02-15T12:49:39.518Z,74.41
2023-02-15T12:52:26.241Z,74.57
2023-02-15T12:54:54.498Z,74.42
2023-02-15T12:57:28.975Z,74.04
2023-02-15T13:00:01.901Z,74.38
2023-02-15T13:02:56.698Z,74.29
2023-02-15T13:05:44.216Z,74.39
2023-02-15T13:08:42.842Z,74.12
2023-02-15T13:11:13.372Z,74.04
2023-02-15T13:14:27.654Z,74.12
2023-02-15T13:17:00.349Z,73.80
2023-02-15T13:19:44.046Z,73.60
2023-02-15T13:22:18.470Z,73.48
2023-02-15T13:25:30.206Z,73.54
2023-02-15T13:28:06.355Z,73.25
2023-02-15T13:30:43.354Z,73.01
2023-02-15T13:33:38.610Z,72.71
2023-02-15T13:36:19.248Z,72.61
2023-02-15T13:39:12.040Z,72.54
2023-02-15T13:42:07.219Z,72.49
2023-02-15T13:44:38.563Z,72.39
2023-02-15T13:47:25.185Z,72.30
2023-02-15T13:50:12.451Z,72.25
2023-02-15T13:52:53.437Z,72.16
2023-02-15T13:55:52.166Z,72.11
2023-02-15T13:58:45.452Z,72.10
2023-02-15T14:01:34.057Z,72.09
2023-02-15T14:04:21.175Z,71.94
2023-02-15T14:06:58.689Z,71.76
2023-02-15T14:09:42.346Z,71.80
2023-02-15T14:12:29.461Z,71.74
2023-02-15T14:15:13.000Z,71.51
2023-02-15T14:17:50.994Z,71.63
2023-02-15T14:20:42.890Z,71.58
2023-02-15T14:23:30.700Z,71.67
2023-02-15T14:26:11.100Z,71.66
2023-02-15T14:28:58.037Z,71.62
2023-02-15T14:31:34.715Z,71.57
2023-02-15T14:34:05.574Z,71.60
2023-02-15T14:36:34.793Z,71.55
2023-02-15T14:39:47.982Z,71.50
2023-02-15T14:42:39.272Z,71.51
2023-02-15T14:45:19.322Z,71.54
2023-02-15T14:47:57.019Z,71.55
2023-02-15T14:50:50.044Z,71.63
2023-02-15T14:53:39.677Z,71.48
2023-02-15T14:56:19.275Z,71.55
2023-02-15T14:58:53.623Z,71.56
2023-02-15T15:01:34.540Z,71.61
2023-02-15T15:04:10.001Z,71.72
2023-02-15T15:06:42.214Z,71.74
2023-02-15T15:09:30.854Z,71.78
2023-02-15T15:12:21.970Z,71.96
2023-02-15T15:14:51.918Z,71.76
2023-02-15T15:17:35.427Z,71.94
2023-02-15T15:20:14.808Z,72.05
2023-02-15T15:22:44.412Z,72.09
2023-02-15T15:25:37.838Z,72.02
2023-02-15T15:28:07.439Z,72.24
2023-02-15T15:30:35.794Z,72.31
2023-02-15T15:33:13.129Z,72.19
2023-02-15T15:35:57.130Z,72.26
2023-02-15T15:38:50.347Z,72.21
2023-02-15T15:41:36.800Z,72.44
2023-02-15T15:44:10.897Z,72.51
2023-02-15T15:46:58.302Z,72.43
2023-02-15T15:49:32.246Z,72.51
2023-02-15T15:52:21.260Z,72.53
2023-02-15T15:54:56.244Z,72.56
2023-02-15T15:57:39.496Z,72.65
2023-02-15T16:00:26.072Z,72.68
2023-02-15T16:02:56.736Z,72.65
2023-02-15T16:05:25.188Z,72.44
2023-02-15T16:07:53.605Z,72.79
2023-02-15T16:10:25.260Z,72.85
2023-02-15T16:12:55.760Z,72.90
2023-02-15T16:15:36.160Z,73.06
2023-02-15T16:18:05.311Z,72.73
2023-02-15T16:20:38.126Z,72.85
2023-02-15T16:23:24.857Z,72.99
2023-02-15T16:26:27.121Z,73.03
2023-02-15T16:28:55.919Z,72.96
2023-02-15T16:31:24.509Z,73.12
2023-02-15T16:33:55.882Z,73.16
2023-02-15T16:36:28.977Z,73.09
2023-02-15T16:38:57.237Z,73.09
2023-02-15T16:41:28.772Z,73.01
2023-02-15T16:44:02.792Z,72.96
2023-02-15T16:46:32.713Z,73.16
2023-02-15T16:49:06.284Z,73.32
2023-02-15T16:51:37.102Z,72.97
2023-02-15T16:54:09.050Z,73.27
2023-02-15T16:56:37.602Z,73.41
2023-02-15T16:59:06.229Z,73.52
2023-02-15T17:01:36.325Z,73.63
2023-02-15T17:04:15.692Z,73.07
2023-02-15T17:06:59.930Z,73.19
2023-02-15T17:09:28.272Z,72.80
2023-02-15T17:11:57.093Z,73.35
2023-02-15T17:14:30.070Z,73.27
2023-02-15T17:17:07.329Z,73.45
2023-02-15T17:19:46.807Z,73.45
2023-02-15T17:22:22.672Z,73.43
2023-02-15T17:25:00.646Z,72.86
2023-02-15T17:27:33.047Z,73.21
2023-02-15T17:30:18.459Z,73.58
2023-02-15T17:33:19.830Z,73.20
2023-02-15T17:36:13.032Z,73.46
2023-02-15T17:39:00.422Z,73.42
2023-02-15T17:41:38.501Z,73.13
2023-02-15T17:44:15.123Z,73.45
2023-02-15T17:46:48.365Z,73.58
2023-02-15T17:49:28.049Z,73.65
2023-02-15T17:51:57.130Z,74.03
2023-02-15T17:54:44.435Z,73.73
2023-02-15T17:57:17.082Z,73.83
2023-02-15T18:00:04.653Z,73.65
2023-02-15T18:02:55.254Z,73.59
2023-02-15T18:05:42.517Z,73.79
2023-02-15T18:08:37.828Z,74.24
2023-02-15T18:11:29.615Z,74.05
2023-02-15T18:14:01.707Z,74.24
2023-02-15T18:16:43.511Z,74.38
2023-02-15T18:19:17.203Z,74.04
2023-02-15T18:21:47.292Z,73.92
2023-02-15T18:24:24.631Z,74.18
2023-02-15T18:26:54.572Z,74.17
2023-02-15T18:29:22.975Z,74.37
2023-02-15T18:31:57.964Z,74.31
2023-02-15T18:34:32.840Z,74.45
2023-02-15T18:37:06.573Z,74.50
2023-02-15T18:39:34.823Z,74.67
2023-02-15T18:42:05.195Z,74.64
2023-02-15T18:44:33.500Z,74.78
2023-02-15T18:47:01.809Z,75.08
2023-02-15T18:49:30.003Z,74.89
2023-02-15T18:51:58.248Z,75.11
2023-02-15T18:54:27.037Z,75.21
2023-02-15T18:57:00.934Z,75.04
2023-02-15T18:59:31.361Z,74.97
2023-02-15T19:02:00.705Z,74.91
2023-02-15T19:04:29.098Z,74.58
2023-02-15T19:06:57.834Z,74.81
2023-02-15T19:09:27.969Z,75.03
2023-02-15T19:11:56.736Z,75.14
2023-02-15T19:14:26.692Z,75.19
2023-02-15T19:16:55.407Z,75.05
2023-02-15T19:19:24.797Z,75.05
2023-02-15T19:21:53.977Z,75.18
2023-02-15T19:24:30.151Z,74.94
2023-02-15T19:26:58.577Z,75.03
2023-02-15T19:29:30.732Z,75.02
2023-02-15T19:31:59.217Z,74.91
2023-02-15T19:34:28.374Z,75.11
2023-02-15T19:36:56.991Z,75.41
2023-02-15T19:39:33.225Z,75.36
2023-02-15T19:42:01.747Z,74.89
2023-02-15T19:44:30.133Z,75.10
2023-02-15T19:46:58.489Z,74.93
2023-02-15T19:49:26.822Z,75.45
2023-02-15T19:51:56.008Z,75.38
2023-02-15T19:54:24.315Z,75.39
2023-02-15T19:56:52.570Z,75.25
2023-02-15T19:59:29.446Z,75.38
2023-02-15T20:01:58.811Z,75.43
2023-02-15T20:04:27.385Z,75.66
2023-02-15T20:06:59.644Z,75.52
2023-02-15T20:09:41.081Z,75.63
2023-02-15T20:12:22.129Z,75.43
2023-02-15T20:14:51.582Z,75.60
2023-02-15T20:17:19.984Z,75.12
2023-02-15T20:19:48.373Z,75.50
2023-02-15T20:22:27.487Z,75.78
2023-02-15T20:24:57.230Z,75.66
2023-02-15T20:27:26.703Z,75.73
2023-02-15T20:29:57.569Z,75.86
2023-02-15T20:32:26.077Z,75.50
2023-02-15T20:34:54.488Z,75.64
2023-02-15T20:37:29.080Z,75.85
2023-02-15T20:39:57.574Z,75.69
2023-02-15T20:42:25.816Z,75.99
2023-02-15T20:44:54.600Z,75.69
2023-02-15T20:47:23.055Z,75.98
2023-02-15T20:49:51.525Z,75.91
2023-02-15T20:52:21.260Z,76.18
2023-02-15T20:54:49.723Z,76.20
2023-02-15T20:57:18.274Z,75.94
2023-02-15T20:59:46.593Z,76.08
2023-02-15T21:02:21.455Z,76.09
2023-02-15T21:04:50.191Z,75.96
2023-02-15T21:07:20.753Z,75.93
2023-02-15T21:09:50.322Z,75.68
2023-02-15T21:12:21.694Z,75.83
2023-02-15T21:14:50.208Z,75.86
2023-02-15T21:17:18.681Z,75.98
2023-02-15T21:19:54.438Z,75.93
2023-02-15T21:22:24.003Z,76.01
2023-02-15T21:24:55.128Z,76.20
2023-02-15T21:27:24.802Z,75.89
2023-02-15T21:29:53.137Z,76.14
2023-02-15T21:32:21.583Z,75.62
2023-02-15T21:34:49.930Z,76.11
2023-02-15T21:37:31.143Z,76.17
2023-02-15T21:39:59.596Z,76.00
2023-02-15T21:42:47.647Z,75.91
2023-02-15T21:45:36.700Z,75.84
2023-02-15T21:48:05.297Z,75.71
2023-02-15T21:50:54.815Z,75.68
2023-02-15T21:53:31.398Z,75.89
2023-02-15T21:56:02.306Z,76.06
2023-02-15T21:58:33.813Z,75.93
2023-02-15T22:01:03.392Z,75.86
2023-02-15T22:03:35.403Z,76.19
2023-02-15T22:06:04.883Z,76.15
2023-02-15T22:08:34.359Z,76.14
2023-02-15T22:11:03.019Z,76.28
2023-02-15T22:13:34.729Z,76.22
2023-02-15T22:16:03.549Z,76.45
2023-02-15T22:18:35.222Z,76.28
2023-02-15T22:21:04.612Z,76.19
2023-02-15T22:23:33.122Z,76.14
2023-02-15T22:26:08.070Z,75.97
2023-02-15T22:28:39.009Z,76.20
2023-02-15T22:31:12.628Z,76.40
2023-02-15T22:33:41.312Z,76.40
2023-02-15T22:36:25.132Z,76.33
2023-02-15T22:38:56.370Z,76.14
2023-02-15T22:41:29.089Z,76.28
2023-02-15T22:43:58.185Z,76.24
2023-02-15T22:46:26.984Z,76.12
2023-02-15T22:48:55.425Z,76.40
2023-02-15T22:51:25.123Z,76.20
2023-02-15T22:53:54.073Z,76.34
2023-02-15T22:56:26.664Z,76.22
2023-02-15T22:59:02.199Z,75.98
2023-02-15T23:01:32.988Z,76.04
2023-02-15T23:04:03.634Z,76.07
2023-02-15T23:06:34.530Z,76.46
2023-02-15T23:09:03.923Z,76.30
2023-02-15T23:11:32.261Z,76.12
2023-02-15T23:14:04.764Z,76.18
2023-02-15T23:16:37.540Z,76.01
2023-02-15T23:19:06.812Z,76.03
2023-02-15T23:21:35.375Z,76.22
2023-02-15T23:24:23.950Z,76.12
2023-02-15T23:26:52.739Z,75.98
2023-02-15T23:29:23.508Z,76.26
2023-02-15T23:31:54.601Z,76.04
2023-02-15T23:34:29.815Z,76.18
2023-02-15T23:36:58.342Z,76.17
2023-02-15T23:39:54.690Z,76.23
2023-02-15T23:42:31.955Z,76.39
2023-02-15T23:45:00.611Z,76.29
2023-02-15T23:47:51.110Z,76.43
2023-02-15T23:50:26.477Z,76.15
2023-02-15T23:52:56.004Z,76.38
2023-02-15T23:55:28.689Z,76.32
2023-02-15T23:57:57.105Z,76.50
